createdAt,value
2023-01-28T00:04:05.197Z,36.27
2023-01-28T00:09:07.558Z,34.33
2023-01-28T00:14:11.503Z,38.57
2023-01-28T00:19:13.386Z,39.17
2023-01-28T00:24:15.471Z,38.13
2023-01-28T00:29:17.557Z,41.17
2023-01-28T00:34:19.825Z,43.40
2023-01-28T00:39:21.601Z,34.13
2023-01-28T00:44:24.089Z,31.00
2023-01-28T00:49:25.874Z,28.77
2023-01-28T00:54:27.642Z,29.57
2023-01-28T00:59:29.486Z,32.03
2023-01-28T01:04:35.425Z,31.83
2023-01-28T01:09:38.310Z,26.83
2023-01-28T01:14:40.106Z,23.00
2023-01-28T01:19:42.922Z,24.80
2023-01-28T01:24:44.803Z,25.23
2023-01-28T01:29:46.599Z,22.20
2023-01-28T01:34:48.920Z,24.87
2023-01-28T01:39:50.781Z,23.37
2023-01-28T01:45:07.678Z,31.03
2023-01-28T01:50:51.401Z,29.10
2023-01-28T01:55:59.689Z,27.13
2023-01-28T02:01:02.375Z,28.80
2023-01-28T02:06:04.443Z,32.27
2023-01-28T02:11:07.894Z,30.03
2023-01-28T02:16:11.462Z,34.93
2023-01-28T02:21:31.636Z,35.17
2023-01-28T02:26:54.507Z,26.87
2023-01-28T02:32:09.798Z,31.00
2023-01-28T02:37:41.493Z,32.83
2023-01-28T02:42:43.386Z,32.10
2023-01-28T02:48:00.286Z,41.53
2023-01-28T02:53:40.168Z,37.77
2023-01-28T02:59:34.011Z,40.40
2023-01-28T03:04:55.807Z,33.87
2023-01-28T03:10:04.323Z,38.30
2023-01-28T03:15:48.240Z,42.93
2023-01-28T03:21:42.845Z,34.77
2023-01-28T03:27:16.704Z,32.97
2023-01-28T03:32:41.670Z,31.07
2023-01-28T03:37:44.017Z,30.73
2023-01-28T03:42:56.867Z,32.27
2023-01-28T03:48:09.077Z,34.60
2023-01-28T03:53:16.368Z,32.57
2023-01-28T03:58:27.144Z,26.53
2023-01-28T04:03:29.215Z,25.80
2023-01-28T04:08:37.824Z,23.00
2023-01-28T04:13:58.341Z,21.67
2023-01-28T04:19:02.395Z,22.63
2023-01-28T04:24:05.158Z,20.07
2023-01-28T04:29:08.235Z,18.33
2023-01-28T04:34:11.981Z,18.13
2023-01-28T04:39:40.036Z,17.53
2023-01-28T04:44:54.481Z,15.17
2023-01-28T04:50:15.625Z,15.87
2023-01-28T04:55:34.843Z,16.07
2023-01-28T05:00:36.765Z,17.47
2023-01-28T05:05:39.258Z,11.73
2023-01-28T05:10:59.713Z,13.50
2023-01-28T05:16:02.179Z,13.93
2023-01-28T05:21:04.252Z,11.77
2023-01-28T05:26:08.175Z,10.70
2023-01-28T05:31:10.971Z,10.97
2023-01-28T05:36:13.415Z,10.37
2023-01-28T05:41:16.060Z,13.90
2023-01-28T05:46:19.867Z,15.80
2023-01-28T05:51:40.092Z,8.17
2023-01-28T05:56:43.797Z,9.60
2023-01-28T06:01:45.627Z,8.50
2023-01-28T06:06:47.723Z,7.50
2023-01-28T06:11:51.035Z,8.83
2023-01-28T06:16:53.598Z,10.40
2023-01-28T06:22:00.831Z,8.50
2023-01-28T06:27:02.711Z,7.40
2023-01-28T06:32:05.515Z,12.03
2023-01-28T06:37:07.361Z,7.90
2023-01-28T06:42:09.169Z,9.50
2023-01-28T06:47:11.386Z,10.00
2023-01-28T06:52:13.260Z,9.83
2023-01-28T06:57:15.182Z,11.83
2023-01-28T07:02:16.976Z,12.50
2023-01-28T07:07:18.769Z,12.53
2023-01-28T07:12:20.589Z,13.07
2023-01-28T07:17:22.670Z,15.13
2023-01-28T07:22:24.550Z,11.43
2023-01-28T07:27:26.394Z,14.43
2023-01-28T07:32:29.022Z,12.13
2023-01-28T07:37:30.958Z,11.87
2023-01-28T07:42:33.355Z,12.73
2023-01-28T07:47:39.535Z,19.33
2023-01-28T07:52:45.812Z,12.70
2023-01-28T07:57:55.807Z,11.40
2023-01-28T08:02:59.456Z,18.27
2023-01-28T08:08:01.383Z,11.83
2023-01-28T08:13:03.570Z,10.90
2023-01-28T08:18:06.976Z,13.50
2023-01-28T08:23:11.515Z,7.43
2023-01-28T08:28:15.045Z,8.13
2023-01-28T08:33:18.459Z,8.33
2023-01-28T08:38:20.543Z,7.53
2023-01-28T08:43:22.578Z,9.27
2023-01-28T08:48:24.406Z,7.13
2023-01-28T08:53:26.190Z,8.50
2023-01-28T08:58:27.987Z,6.70
2023-01-28T09:03:29.805Z,9.73
2023-01-28T09:08:32.215Z,9.97
2023-01-28T09:13:34.121Z,8.97
2023-01-28T09:18:35.928Z,7.27
2023-01-28T09:23:38.730Z,7.97
2023-01-28T09:28:40.827Z,8.70
2023-01-28T09:33:42.713Z,10.43
2023-01-28T09:38:44.837Z,8.27
2023-01-28T09:44:21.339Z,9.10
2023-01-28T09:49:51.122Z,8.47
2023-01-28T09:54:59.221Z,9.10
2023-01-28T10:00:02.627Z,8.23
2023-01-28T10:05:24.311Z,7.67
2023-01-28T10:10:35.559Z,7.77
2023-01-28T10:15:53.951Z,8.43
2023-01-28T10:21:02.718Z,8.10
2023-01-28T10:26:15.355Z,7.97
2023-01-28T10:31:17.253Z,7.10
2023-01-28T10:36:19.622Z,5.50
2023-01-28T10:41:22.922Z,5.90
2023-01-28T10:46:32.346Z,5.70
2023-01-28T10:51:41.424Z,6.47
2023-01-28T10:56:44.031Z,5.60
2023-01-28T11:02:06.011Z,6.30
2023-01-28T11:07:19.389Z,6.93
2023-01-28T11:12:26.011Z,6.50
2023-01-28T11:17:33.263Z,9.80
2023-01-28T11:22:45.351Z,7.53
2023-01-28T11:27:49.997Z,6.30
2023-01-28T11:33:14.074Z,6.70
2023-01-28T11:38:22.253Z,7.10
2023-01-28T11:43:30.709Z,8.33
2023-01-28T11:48:50.526Z,7.53
2023-01-28T11:54:13.659Z,7.90
2023-01-28T11:59:42.988Z,7.90
2023-01-28T12:05:11.920Z,9.77
2023-01-28T12:10:48.976Z,8.97
2023-01-28T12:16:12.213Z,8.60
2023-01-28T12:21:26.124Z,8.80
2023-01-28T12:26:30.819Z,7.83
2023-01-28T12:31:41.936Z,7.83
2023-01-28T12:37:04.636Z,7.93
2023-01-28T12:42:20.376Z,8.60
2023-01-28T12:47:34.725Z,9.10
2023-01-28T12:52:43.061Z,8.13
2023-01-28T12:57:45.616Z,8.13
2023-01-28T13:02:56.750Z,10.07
2023-01-28T13:08:05.672Z,8.10
2023-01-28T13:13:08.027Z,7.93
2023-01-28T13:18:45.236Z,9.27
2023-01-28T13:23:49.012Z,7.17
2023-01-28T13:28:52.606Z,7.07
2023-01-28T13:33:54.380Z,7.60
2023-01-28T13:39:07.360Z,7.60
2023-01-28T13:44:30.405Z,8.20
2023-01-28T13:49:48.961Z,8.10
2023-01-28T13:55:05.223Z,8.10
2023-01-28T14:00:29.599Z,8.03
2023-01-28T14:05:46.707Z,8.50
2023-01-28T14:10:57.598Z,9.10
2023-01-28T14:16:23.756Z,8.90
2023-01-28T14:21:27.332Z,9.27
2023-01-28T14:27:31.343Z,9.20
2023-01-28T14:32:34.569Z,10.23
2023-01-28T14:37:36.676Z,11.23
2023-01-28T14:42:43.602Z,11.47
2023-01-28T14:48:08.473Z,9.73
2023-01-28T14:53:26.301Z,12.83
2023-01-28T14:58:35.589Z,12.20
2023-01-28T15:03:46.330Z,12.13
2023-01-28T15:08:48.431Z,11.30
2023-01-28T15:13:55.402Z,11.17
2023-01-28T15:19:00.917Z,13.13
2023-01-28T15:24:03.330Z,12.90
2023-01-28T15:29:05.323Z,11.87
2023-01-28T15:34:14.292Z,16.90
2023-01-28T15:39:22.732Z,15.93
2023-01-28T15:44:37.526Z,81.10
2023-01-28T15:49:45.146Z,20.40
2023-01-28T15:54:51.955Z,20.43
2023-01-28T16:00:11.520Z,30.23
2023-01-28T16:05:33.033Z,17.87
2023-01-28T16:10:35.229Z,17.60
2023-01-28T16:15:39.354Z,15.17
2023-01-28T16:20:41.253Z,15.00
2023-01-28T16:25:43.038Z,15.73
2023-01-28T16:30:44.967Z,17.37
2023-01-28T16:36:04.520Z,12.77
2023-01-28T16:41:28.281Z,13.23
2023-01-28T16:46:30.179Z,12.80
2023-01-28T16:51:32.205Z,15.13
2023-01-28T16:56:49.401Z,11.53
2023-01-28T17:01:51.479Z,13.03
2023-01-28T17:06:54.052Z,12.13
2023-01-28T17:11:56.183Z,12.27
2023-01-28T17:16:57.999Z,12.67
2023-01-28T17:22:00.064Z,16.10
2023-01-28T17:27:01.883Z,12.20
2023-01-28T17:32:03.922Z,12.63
2023-01-28T17:37:05.851Z,12.43
2023-01-28T17:42:07.676Z,11.13
2023-01-28T17:47:09.871Z,11.90
2023-01-28T17:52:11.683Z,12.33
2023-01-28T17:57:13.553Z,13.67
2023-01-28T18:02:15.953Z,18.00
2023-01-28T18:07:17.737Z,16.43
2023-01-28T18:12:19.647Z,13.67
2023-01-28T18:17:26.748Z,19.40
2023-01-28T18:22:28.614Z,13.83
2023-01-28T18:27:30.450Z,13.57
2023-01-28T18:32:32.281Z,14.30
2023-01-28T18:37:34.059Z,11.97
2023-01-28T18:42:37.645Z,13.93
2023-01-28T18:47:39.473Z,15.50
2023-01-28T18:52:41.551Z,18.37
2023-01-28T18:57:43.397Z,30.10
2023-01-28T19:02:45.226Z,12.60
2023-01-28T19:07:47.069Z,12.77
2023-01-28T19:12:49.010Z,12.90
2023-01-28T19:17:50.811Z,11.97
2023-01-28T19:22:52.786Z,14.00
2023-01-28T19:27:55.188Z,13.73
2023-01-28T19:32:56.973Z,14.47
2023-01-28T19:37:59.013Z,12.83
2023-01-28T19:43:00.885Z,11.37
2023-01-28T19:48:02.887Z,15.07
2023-01-28T19:53:04.732Z,13.53
2023-01-28T19:58:06.753Z,16.60
2023-01-28T20:03:08.648Z,17.00
2023-01-28T20:08:11.071Z,18.77
2023-01-28T20:13:12.888Z,14.17
2023-01-28T20:18:14.799Z,18.97
2023-01-28T20:23:16.602Z,18.67
2023-01-28T20:28:18.507Z,18.57
2023-01-28T20:33:21.187Z,18.67
2023-01-28T20:38:23.098Z,19.50
2023-01-28T20:43:24.925Z,20.47
2023-01-28T20:48:27.465Z,55.67
2023-01-28T20:53:29.277Z,26.33
2023-01-28T20:58:31.505Z,16.13
2023-01-28T21:03:34.078Z,66.23
2023-01-28T21:08:35.998Z,27.70
2023-01-28T21:13:38.595Z,19.83
2023-01-28T21:18:40.449Z,18.57
2023-01-28T21:23:42.312Z,19.90
2023-01-28T21:28:44.994Z,20.47
2023-01-28T21:33:51.336Z,19.63
2023-01-28T21:38:57.702Z,15.77
2023-01-28T21:43:59.857Z,15.13
2023-01-28T21:49:03.992Z,14.63
2023-01-28T21:54:19.657Z,13.73
2023-01-28T21:59:30.766Z,14.27
2023-01-28T22:04:35.342Z,14.10
2023-01-28T22:09:37.868Z,14.23
2023-01-28T22:14:39.754Z,14.90
2023-01-28T22:19:47.819Z,13.70
2023-01-28T22:24:49.671Z,15.57
2023-01-28T22:29:51.924Z,13.67
2023-01-28T22:34:55.038Z,11.57
2023-01-28T22:39:56.917Z,14.03
2023-01-28T22:44:58.727Z,13.30
2023-01-28T22:50:00.522Z,12.90
2023-01-28T22:55:02.635Z,11.50
2023-01-28T23:00:09.199Z,16.70
2023-01-28T23:05:11.085Z,17.13
2023-01-28T23:10:12.941Z,22.00
2023-01-28T23:15:33.300Z,15.87
2023-01-28T23:20:53.579Z,16.27
2023-01-28T23:25:55.402Z,15.03
2023-01-28T23:30:57.383Z,16.33
2023-01-28T23:35:59.382Z,15.83
2023-01-28T23:41:02.269Z,15.60
2023-01-28T23:46:04.459Z,14.97
2023-01-28T23:51:09.329Z,15.93
2023-01-28T23:56:11.310Z,16.03
